createdAt,value
2022-08-25T00:02:00.116Z,24.00
2022-08-25T00:04:31.168Z,23.84
2022-08-25T00:07:03.099Z,23.72
2022-08-25T00:09:31.567Z,23.72
2022-08-25T00:11:58.832Z,23.53
2022-08-25T00:14:35.775Z,23.66
2022-08-25T00:17:04.410Z,23.74
2022-08-25T00:19:34.079Z,23.51
2022-08-25T00:22:00.952Z,23.61
2022-08-25T00:24:27.992Z,23.72
2022-08-25T00:26:57.110Z,23.73
2022-08-25T00:29:27.131Z,23.57
2022-08-25T00:32:01.919Z,23.75
2022-08-25T00:34:34.257Z,23.87
2022-08-25T00:37:01.951Z,23.96
2022-08-25T00:39:30.962Z,23.97
2022-08-25T00:42:00.025Z,24.01
2022-08-25T00:44:35.901Z,24.03
2022-08-25T00:47:03.973Z,24.05
2022-08-25T00:49:38.536Z,24.14
2022-08-25T00:52:13.110Z,24.20
2022-08-25T00:54:49.714Z,24.24
2022-08-25T00:57:22.093Z,24.24
2022-08-25T01:00:01.357Z,24.24
2022-08-25T01:02:27.836Z,24.14
2022-08-25T01:04:54.255Z,24.14
2022-08-25T01:07:29.923Z,24.20
2022-08-25T01:09:56.527Z,24.15
2022-08-25T01:12:29.932Z,24.11
2022-08-25T01:14:56.775Z,24.12
2022-08-25T01:17:23.252Z,24.12
2022-08-25T01:19:49.718Z,24.03
2022-08-25T01:22:32.224Z,24.08
2022-08-25T01:25:05.248Z,24.04
2022-08-25T01:27:36.349Z,23.95
2022-08-25T01:30:03.068Z,23.86
2022-08-25T01:33:32.939Z,23.87
2022-08-25T01:35:59.806Z,23.80
2022-08-25T01:42:28.764Z,23.51
2022-08-25T01:48:45.681Z,23.47
2022-08-25T01:51:25.967Z,23.19
2022-08-25T01:53:52.357Z,23.01
2022-08-25T01:56:21.409Z,22.93
2022-08-25T01:58:50.289Z,22.78
2022-08-25T02:01:20.406Z,22.90
2022-08-25T02:03:52.331Z,22.75
2022-08-25T02:06:34.891Z,22.87
2022-08-25T02:09:10.363Z,22.70
2022-08-25T02:11:38.765Z,22.57
2022-08-25T02:14:05.716Z,22.48
2022-08-25T02:16:42.036Z,22.43
2022-08-25T02:19:11.801Z,22.28
2022-08-25T02:21:50.980Z,22.20
2022-08-25T02:24:18.734Z,22.16
2022-08-25T02:26:53.983Z,22.11
2022-08-25T02:29:20.396Z,21.90
2022-08-25T02:31:47.020Z,21.85
2022-08-25T02:34:16.184Z,21.87
2022-08-25T02:36:43.739Z,21.80
2022-08-25T02:39:11.360Z,21.85
2022-08-25T02:41:44.995Z,21.75
2022-08-25T02:44:13.686Z,21.61
2022-08-25T02:46:46.994Z,21.54
2022-08-25T02:49:13.384Z,21.27
2022-08-25T02:51:39.853Z,21.32
2022-08-25T02:54:07.056Z,21.32
2022-08-25T02:56:36.152Z,21.37
2022-08-25T02:59:05.583Z,21.28
2022-08-25T03:01:39.077Z,21.11
2022-08-25T03:04:07.144Z,21.08
2022-08-25T03:06:40.027Z,21.07
2022-08-25T03:09:09.287Z,21.25
2022-08-25T03:11:47.029Z,21.27
2022-08-25T03:14:13.491Z,21.58
2022-08-25T03:16:49.138Z,21.69
2022-08-25T03:19:16.703Z,21.63
2022-08-25T03:22:04.039Z,21.84
2022-08-25T03:24:30.489Z,21.80
2022-08-25T03:26:59.334Z,21.80
2022-08-25T03:29:29.368Z,21.78
2022-08-25T03:31:58.154Z,21.81
2022-08-25T03:34:29.628Z,21.79
2022-08-25T03:36:57.075Z,21.77
2022-08-25T03:39:25.583Z,21.70
2022-08-25T03:41:53.320Z,21.63
2022-08-25T03:44:21.410Z,21.47
2022-08-25T03:46:51.199Z,21.38
2022-08-25T03:49:22.706Z,21.24
2022-08-25T03:51:52.661Z,21.20
2022-08-25T03:54:24.693Z,21.21
2022-08-25T03:56:51.564Z,21.07
2022-08-25T03:59:18.161Z,20.95
2022-08-25T04:01:55.678Z,21.02
2022-08-25T04:04:22.783Z,20.90
2022-08-25T04:06:49.290Z,20.71
2022-08-25T04:09:15.654Z,20.66
2022-08-25T04:11:42.736Z,20.67
2022-08-25T04:14:09.387Z,20.59
2022-08-25T04:16:42.622Z,20.50
2022-08-25T04:19:15.561Z,20.53
2022-08-25T04:22:02.098Z,20.48
2022-08-25T04:24:29.967Z,20.49
2022-08-25T04:26:56.908Z,20.26
2022-08-25T04:29:27.609Z,20.36
2022-08-25T04:32:02.189Z,20.42
2022-08-25T04:34:30.176Z,20.31
2022-08-25T04:37:09.070Z,20.24
2022-08-25T04:39:35.893Z,20.21
2022-08-25T04:42:02.786Z,20.15
2022-08-25T04:44:32.859Z,20.00
2022-08-25T04:47:02.271Z,19.95
2022-08-25T04:49:28.852Z,19.96
2022-08-25T04:52:03.112Z,19.85
2022-08-25T04:54:36.027Z,19.88
2022-08-25T04:57:10.099Z,19.88
2022-08-25T04:59:38.703Z,19.86
2022-08-25T05:02:08.472Z,19.66
2022-08-25T05:04:36.295Z,19.67
2022-08-25T05:07:06.079Z,19.66
2022-08-25T05:09:33.199Z,19.63
2022-08-25T05:12:07.518Z,19.66
2022-08-25T05:14:34.024Z,19.64
2022-08-25T05:17:04.579Z,19.68
2022-08-25T05:19:31.074Z,19.76
2022-08-25T05:21:58.100Z,19.74
2022-08-25T05:24:32.110Z,19.86
2022-08-25T05:27:03.920Z,19.89
2022-08-25T05:29:30.251Z,19.96
2022-08-25T05:31:58.983Z,19.99
2022-08-25T05:34:25.666Z,20.07
2022-08-25T05:36:54.678Z,20.10
2022-08-25T05:39:21.280Z,20.18
2022-08-25T05:41:47.752Z,20.27
2022-08-25T05:44:24.157Z,20.33
2022-08-25T05:46:51.268Z,20.42
2022-08-25T05:49:17.901Z,20.54
2022-08-25T05:51:54.170Z,20.63
2022-08-25T05:54:22.995Z,20.75
2022-08-25T05:56:49.590Z,20.84
2022-08-25T05:59:15.960Z,20.94
2022-08-25T06:02:01.352Z,21.04
2022-08-25T06:04:30.311Z,21.16
2022-08-25T06:07:02.105Z,21.34
2022-08-25T06:09:28.523Z,21.41
2022-08-25T06:11:58.381Z,21.57
2022-08-25T06:14:25.056Z,21.69
2022-08-25T06:16:52.233Z,21.78
2022-08-25T06:19:18.935Z,21.96
2022-08-25T06:21:47.816Z,22.05
2022-08-25T06:24:20.191Z,22.20
2022-08-25T06:26:46.730Z,22.34
2022-08-25T06:29:14.083Z,22.51
2022-08-25T06:31:43.529Z,22.65
2022-08-25T06:34:13.744Z,22.82
2022-08-25T06:36:40.688Z,23.03
2022-08-25T06:39:14.204Z,23.20
2022-08-25T06:41:40.719Z,23.41
2022-08-25T06:44:11.072Z,23.53
2022-08-25T06:46:37.546Z,23.70
2022-08-25T06:49:06.804Z,23.88
2022-08-25T06:51:36.057Z,24.00
2022-08-25T06:54:03.553Z,24.19
2022-08-25T06:56:30.043Z,24.48
2022-08-25T06:58:56.471Z,24.52
2022-08-25T07:01:26.963Z,24.58
2022-08-25T07:03:59.813Z,24.63
2022-08-25T07:06:28.403Z,24.87
2022-08-25T07:08:55.878Z,25.00
2022-08-25T07:11:22.461Z,25.09
2022-08-25T07:13:50.375Z,25.27
2022-08-25T07:16:19.178Z,25.48
2022-08-25T07:18:47.138Z,25.38
2022-08-25T07:21:35.617Z,25.55
2022-08-25T07:24:06.941Z,25.64
2022-08-25T07:26:37.906Z,25.73
2022-08-25T07:29:09.952Z,25.90
2022-08-25T07:31:39.562Z,25.77
2022-08-25T07:34:34.565Z,25.85
2022-08-25T07:37:04.359Z,26.00
2022-08-25T07:39:35.853Z,26.05
2022-08-25T07:42:02.268Z,26.30
2022-08-25T07:44:28.688Z,26.30
2022-08-25T07:46:55.681Z,26.24
2022-08-25T07:49:24.297Z,26.22
2022-08-25T07:52:05.515Z,26.42
2022-08-25T07:54:35.547Z,26.43
2022-08-25T07:57:07.348Z,26.47
2022-08-25T07:59:39.741Z,26.46
2022-08-25T08:02:19.403Z,26.54
2022-08-25T08:04:52.931Z,26.79
2022-08-25T08:07:23.892Z,26.85
2022-08-25T08:12:56.764Z,26.96
2022-08-25T08:15:23.386Z,26.80
2022-08-25T08:17:50.146Z,27.06
2022-08-25T08:20:17.396Z,26.97
2022-08-25T08:23:03.395Z,27.09
2022-08-25T08:25:30.780Z,27.12
2022-08-25T08:27:57.274Z,27.13
2022-08-25T08:30:27.353Z,27.18
2022-08-25T08:33:16.501Z,27.18
2022-08-25T08:35:43.260Z,27.30
2022-08-25T08:38:14.847Z,27.29
2022-08-25T08:41:11.522Z,27.44
2022-08-25T08:43:41.717Z,27.31
2022-08-25T08:46:08.286Z,27.51
2022-08-25T08:48:37.089Z,27.43
2022-08-25T08:51:15.033Z,27.62
2022-08-25T08:53:52.747Z,27.74
2022-08-25T08:56:31.833Z,27.75
2022-08-25T08:59:06.386Z,27.70
2022-08-25T09:01:45.517Z,27.73
2022-08-25T09:04:20.882Z,27.77
2022-08-25T09:06:51.210Z,27.70
2022-08-25T09:09:28.711Z,27.58
2022-08-25T09:12:09.550Z,27.85
2022-08-25T09:14:54.003Z,27.77
2022-08-25T09:18:00.289Z,27.82
2022-08-25T09:20:36.717Z,28.09
2022-08-25T09:23:10.815Z,28.25
2022-08-25T09:26:02.591Z,28.27
2022-08-25T09:28:29.075Z,28.42
2022-08-25T09:31:17.647Z,28.42
2022-08-25T09:34:04.290Z,28.46
2022-08-25T09:36:37.553Z,28.39
2022-08-25T09:39:10.086Z,28.47
2022-08-25T09:41:47.057Z,28.51
2022-08-25T09:44:42.693Z,28.55
2022-08-25T09:47:18.136Z,28.69
2022-08-25T09:50:08.366Z,28.55
2022-08-25T09:52:45.813Z,28.75
2022-08-25T09:55:20.343Z,28.83
2022-08-25T09:57:56.732Z,28.91
2022-08-25T10:00:24.375Z,28.78
2022-08-25T10:03:14.411Z,28.75
2022-08-25T10:06:03.395Z,28.88
2022-08-25T10:08:44.732Z,28.87
2022-08-25T10:11:42.207Z,28.88
2022-08-25T10:14:33.886Z,28.93
2022-08-25T10:17:31.392Z,28.95
2022-08-25T10:20:11.910Z,28.96
2022-08-25T10:22:53.372Z,29.18
2022-08-25T10:25:29.808Z,29.22
2022-08-25T10:28:37.398Z,29.39
2022-08-25T10:31:19.443Z,29.44
2022-08-25T10:34:12.408Z,29.34
2022-08-25T10:36:58.983Z,29.43
2022-08-25T10:39:54.912Z,29.36
2022-08-25T10:42:42.745Z,29.38
2022-08-25T10:45:39.856Z,29.31
2022-08-25T10:48:40.082Z,29.11
2022-08-25T10:51:07.878Z,29.29
2022-08-25T10:53:53.028Z,29.54
2022-08-25T10:56:41.626Z,29.41
2022-08-25T10:59:46.861Z,28.93
2022-08-25T11:02:41.593Z,28.66
2022-08-25T11:05:30.476Z,28.91
2022-08-25T11:08:32.094Z,29.11
2022-08-25T11:11:03.659Z,29.28
2022-08-25T11:13:47.659Z,29.15
2022-08-25T11:16:21.799Z,29.15
2022-08-25T11:18:58.094Z,29.29
2022-08-25T11:21:49.242Z,29.40
2022-08-25T11:24:39.895Z,29.54
2022-08-25T11:27:15.752Z,29.59
2022-08-25T11:29:53.363Z,29.65
2022-08-25T11:32:20.995Z,29.65
2022-08-25T11:34:50.551Z,29.73
2022-08-25T11:37:25.954Z,29.60
2022-08-25T11:39:58.599Z,29.41
2022-08-25T11:42:25.761Z,29.22
2022-08-25T11:45:19.453Z,29.22
2022-08-25T11:47:46.001Z,29.18
2022-08-25T11:51:00.509Z,29.03
2022-08-25T11:53:35.846Z,28.93
2022-08-25T11:56:13.034Z,29.06
2022-08-25T11:58:53.764Z,29.04
2022-08-25T12:01:36.074Z,28.90
2022-08-25T12:04:13.338Z,28.94
2022-08-25T12:07:00.371Z,29.02
2022-08-25T12:09:26.789Z,29.01
2022-08-25T12:11:55.554Z,28.89
2022-08-25T12:14:22.042Z,28.94
2022-08-25T12:16:53.780Z,29.09
2022-08-25T12:19:41.505Z,28.96
2022-08-25T12:22:29.479Z,29.18
2022-08-25T12:25:06.869Z,29.42
2022-08-25T12:27:50.625Z,29.66
2022-08-25T12:30:23.314Z,29.83
2022-08-25T12:33:10.864Z,29.94
2022-08-25T12:35:52.739Z,30.13
2022-08-25T12:38:42.541Z,30.12
2022-08-25T12:41:13.428Z,29.91
2022-08-25T12:43:45.143Z,29.72
2022-08-25T12:46:27.466Z,29.69
2022-08-25T12:49:36.119Z,30.04
2022-08-25T12:52:30.840Z,30.22
2022-08-25T12:55:05.331Z,30.34
2022-08-25T12:57:40.513Z,30.34
2022-08-25T13:06:36.287Z,30.35
2022-08-25T13:09:31.874Z,30.50
2022-08-25T13:12:07.876Z,30.58
2022-08-25T13:14:39.186Z,30.45
2022-08-25T13:17:07.478Z,30.39
2022-08-25T13:19:39.005Z,30.24
2022-08-25T13:22:40.548Z,30.43
2022-08-25T13:25:07.160Z,30.26
2022-08-25T13:27:42.535Z,30.32
2022-08-25T13:30:23.343Z,30.29
2022-08-25T13:32:56.571Z,30.19
2022-08-25T13:35:33.133Z,30.06
2022-08-25T13:38:23.531Z,30.15
2022-08-25T13:40:50.425Z,30.37
2022-08-25T13:43:16.870Z,30.53
2022-08-25T13:45:46.741Z,30.66
2022-08-25T13:48:30.790Z,30.72
2022-08-25T13:51:09.059Z,30.80
2022-08-25T13:53:37.567Z,30.94
2022-08-25T13:56:04.278Z,31.13
2022-08-25T13:58:45.663Z,31.20
2022-08-25T14:01:25.700Z,31.23
2022-08-25T14:04:57.573Z,30.93
2022-08-25T14:07:25.404Z,30.84
2022-08-25T14:10:06.578Z,31.00
2022-08-25T14:12:40.559Z,30.82
2022-08-25T14:15:08.562Z,30.91
2022-08-25T14:17:39.534Z,30.96
2022-08-25T14:20:29.105Z,30.93
2022-08-25T14:23:05.582Z,31.02
2022-08-25T14:25:37.301Z,30.81
2022-08-25T14:28:14.377Z,30.69
2022-08-25T14:30:46.612Z,30.64
2022-08-25T14:33:14.525Z,30.72
2022-08-25T14:35:44.564Z,30.82
2022-08-25T14:38:12.277Z,30.91
2022-08-25T14:40:39.732Z,30.96
2022-08-25T14:43:09.818Z,30.99
2022-08-25T14:45:46.678Z,31.06
2022-08-25T14:48:24.987Z,31.13
2022-08-25T14:50:59.623Z,31.22
2022-08-25T14:53:27.103Z,31.20
2022-08-25T14:56:10.201Z,31.12
2022-08-25T14:58:50.984Z,31.12
2022-08-25T15:01:30.128Z,31.07
2022-08-25T15:04:17.595Z,31.05
2022-08-25T15:06:51.639Z,30.95
2022-08-25T15:09:18.893Z,30.92
2022-08-25T15:12:00.680Z,30.92
2022-08-25T15:14:33.238Z,30.87
2022-08-25T15:17:07.654Z,30.82
2022-08-25T15:19:35.338Z,30.86
2022-08-25T15:22:01.795Z,30.87
2022-08-25T15:24:28.472Z,30.90
2022-08-25T15:26:58.632Z,30.91
2022-08-25T15:29:30.427Z,30.91
2022-08-25T15:32:01.602Z,30.87
2022-08-25T15:34:29.699Z,30.82
2022-08-25T15:37:07.260Z,30.82
2022-08-25T15:39:36.205Z,30.84
2022-08-25T15:42:03.915Z,30.84
2022-08-25T15:44:31.334Z,30.96
2022-08-25T15:46:58.920Z,30.93
2022-08-25T15:49:29.521Z,30.99
2022-08-25T15:51:56.851Z,31.04
2022-08-25T15:54:26.678Z,30.95
2022-08-25T15:56:57.512Z,30.82
2022-08-25T15:59:27.815Z,30.74
2022-08-25T16:01:54.549Z,30.76
2022-08-25T16:04:23.492Z,30.67
2022-08-25T16:06:50.370Z,30.47
2022-08-25T16:09:17.074Z,30.47
2022-08-25T16:11:56.852Z,30.45
2022-08-25T16:14:24.827Z,30.31
2022-08-25T16:16:54.077Z,30.33
2022-08-25T16:19:31.793Z,30.34
2022-08-25T16:22:18.725Z,30.39
2022-08-25T16:24:45.443Z,30.34
2022-08-25T16:27:13.336Z,30.35
2022-08-25T16:29:43.908Z,30.43
2022-08-25T16:32:16.122Z,30.31
2022-08-25T16:34:45.364Z,30.10
2022-08-25T16:37:14.148Z,30.15
2022-08-25T16:39:45.387Z,30.31
2022-08-25T16:42:12.273Z,30.39
2022-08-25T16:44:39.872Z,30.33
2022-08-25T16:47:08.765Z,30.19
2022-08-25T16:49:35.599Z,30.10
2022-08-25T16:52:24.571Z,30.11
2022-08-25T16:55:14.345Z,29.99
2022-08-25T16:57:47.817Z,29.81
2022-08-25T17:00:18.111Z,29.66
2022-08-25T17:02:45.558Z,29.63
2022-08-25T17:05:18.734Z,29.66
2022-08-25T17:08:08.824Z,29.62
2022-08-25T17:10:41.347Z,29.64
2022-08-25T17:13:08.975Z,29.52
2022-08-25T17:15:43.349Z,29.53
2022-08-25T17:18:13.643Z,29.66
2022-08-25T17:20:43.285Z,29.67
2022-08-25T17:23:14.202Z,29.68
2022-08-25T17:25:43.480Z,29.56
2022-08-25T17:28:12.235Z,29.51
2022-08-25T17:30:46.751Z,29.49
2022-08-25T17:33:14.200Z,29.61
2022-08-25T17:35:50.758Z,29.67
2022-08-25T17:38:25.908Z,29.75
2022-08-25T17:40:55.313Z,29.88
2022-08-25T17:43:22.322Z,29.88
2022-08-25T17:45:49.259Z,29.87
2022-08-25T17:48:16.699Z,29.83
2022-08-25T17:50:43.087Z,29.62
2022-08-25T17:53:12.877Z,29.59
2022-08-25T17:55:47.791Z,29.51
2022-08-25T17:58:16.791Z,29.43
2022-08-25T18:00:51.759Z,29.57
2022-08-25T18:03:19.297Z,29.61
2022-08-25T18:05:52.770Z,29.35
2022-08-25T18:08:19.438Z,29.17
2022-08-25T18:10:48.019Z,29.04
2022-08-25T18:13:17.045Z,28.88
2022-08-25T18:15:44.446Z,28.92
2022-08-25T18:18:14.276Z,28.92
2022-08-25T18:20:44.047Z,28.84
2022-08-25T18:23:10.447Z,28.77
2022-08-25T18:25:50.833Z,28.76
2022-08-25T18:28:17.751Z,28.45
2022-08-25T18:30:50.861Z,28.36
2022-08-25T18:33:18.935Z,28.35
2022-08-25T18:35:46.168Z,28.45
2022-08-25T18:38:33.257Z,28.39
2022-08-25T18:41:05.060Z,28.21
2022-08-25T18:43:33.980Z,28.06
2022-08-25T18:46:03.349Z,27.80
2022-08-25T18:48:34.466Z,27.64
2022-08-25T18:51:00.983Z,27.52
2022-08-25T18:53:30.713Z,27.38
2022-08-25T18:56:22.831Z,27.16
2022-08-25T18:58:49.769Z,27.15
2022-08-25T19:01:19.005Z,27.05
2022-08-25T19:03:45.849Z,26.97
2022-08-25T19:06:12.513Z,26.89
2022-08-25T19:08:41.630Z,26.79
2022-08-25T19:11:22.283Z,26.63
2022-08-25T19:13:49.269Z,26.56
2022-08-25T19:16:30.600Z,26.50
2022-08-25T19:21:38.472Z,26.33
2022-08-25T19:24:06.922Z,26.24
2022-08-25T19:26:42.485Z,26.13
2022-08-25T19:29:12.498Z,26.09
2022-08-25T19:31:48.500Z,26.08
2022-08-25T19:34:21.623Z,26.10
2022-08-25T19:36:55.469Z,26.01
2022-08-25T19:39:23.100Z,25.99
2022-08-25T19:41:57.488Z,25.93
2022-08-25T19:44:25.265Z,25.84
2022-08-25T19:46:57.526Z,25.75
2022-08-25T19:49:31.759Z,25.68
2022-08-25T19:52:06.492Z,25.59
2022-08-25T19:54:44.408Z,25.47
2022-08-25T19:57:13.580Z,25.38
2022-08-25T19:59:54.751Z,25.27
2022-08-25T20:02:25.382Z,25.22
2022-08-25T20:04:59.438Z,25.21
2022-08-25T20:07:30.561Z,25.11
2022-08-25T20:09:58.089Z,25.04
2022-08-25T20:12:25.965Z,24.99
2022-08-25T20:14:54.407Z,24.96
2022-08-25T20:17:23.586Z,24.80
2022-08-25T20:19:52.408Z,24.78
2022-08-25T20:22:26.678Z,24.79
2022-08-25T20:24:57.869Z,24.69
2022-08-25T20:27:35.498Z,24.63
2022-08-25T20:30:04.866Z,24.59
2022-08-25T20:32:39.513Z,24.54
2022-08-25T20:35:09.307Z,24.50
2022-08-25T20:37:48.510Z,24.47
2022-08-25T20:40:30.888Z,24.43
2022-08-25T20:43:10.380Z,24.38
2022-08-25T20:45:40.891Z,24.37
2022-08-25T20:48:13.531Z,24.33
2022-08-25T20:50:39.983Z,24.28
2022-08-25T20:53:10.136Z,24.24
2022-08-25T20:55:52.533Z,24.22
2022-08-25T20:58:20.159Z,24.17
2022-08-25T21:00:55.514Z,24.11
2022-08-25T21:03:22.153Z,23.99
2022-08-25T21:05:48.983Z,23.98
2022-08-25T21:08:20.607Z,23.93
2022-08-25T21:10:52.597Z,23.86
2022-08-25T21:13:19.049Z,23.81
2022-08-25T21:15:54.558Z,23.76
2022-08-25T21:18:20.915Z,23.74
2022-08-25T21:21:07.558Z,23.61
2022-08-25T21:23:35.400Z,23.56
2022-08-25T21:26:01.859Z,23.54
2022-08-25T21:28:31.083Z,23.45
2022-08-25T21:31:00.356Z,23.33
2022-08-25T21:33:28.310Z,23.37
2022-08-25T21:35:54.870Z,23.29
2022-08-25T21:38:21.479Z,23.27
2022-08-25T21:40:48.053Z,23.13
2022-08-25T21:43:15.005Z,23.13
2022-08-25T21:45:46.772Z,22.99
2022-08-25T21:48:13.876Z,22.95
2022-08-25T21:50:49.577Z,22.85
2022-08-25T21:53:15.959Z,22.78
2022-08-25T21:55:50.593Z,22.73
2022-08-25T21:58:17.057Z,22.69
2022-08-25T22:00:44.609Z,22.58
2022-08-25T22:03:13.354Z,22.54
2022-08-25T22:05:45.615Z,22.48
2022-08-25T22:08:12.258Z,22.45
2022-08-25T22:10:54.621Z,22.43
2022-08-25T22:13:21.863Z,22.37
2022-08-25T22:15:51.886Z,22.33
2022-08-25T22:18:19.678Z,22.30
2022-08-25T22:21:08.705Z,22.29
2022-08-25T22:23:44.191Z,22.26
2022-08-25T22:26:12.395Z,22.13
2022-08-25T22:28:39.402Z,22.13
2022-08-25T22:31:12.192Z,22.12
2022-08-25T22:33:40.499Z,22.08
2022-08-25T22:36:29.276Z,22.05
2022-08-25T22:38:56.666Z,22.03
2022-08-25T22:41:31.463Z,21.99
2022-08-25T22:44:04.921Z,21.96
2022-08-25T22:46:34.698Z,21.81
2022-08-25T22:49:02.074Z,21.77
2022-08-25T22:51:39.628Z,21.77
2022-08-25T22:54:06.067Z,21.76
2022-08-25T22:56:43.649Z,21.65
2022-08-25T22:59:11.895Z,21.72
2022-08-25T23:01:44.638Z,21.65
2022-08-25T23:04:11.098Z,21.66
2022-08-25T23:06:37.948Z,21.62
2022-08-25T23:09:07.701Z,21.57
2022-08-25T23:11:35.598Z,21.57
2022-08-25T23:14:11.050Z,21.55
2022-08-25T23:16:41.868Z,21.54
2022-08-25T23:19:10.774Z,21.53
2022-08-25T23:22:02.676Z,21.44
2022-08-25T23:24:30.831Z,21.44
2022-08-25T23:26:59.356Z,21.38
2022-08-25T23:29:27.637Z,21.37
2022-08-25T23:31:54.170Z,21.34
2022-08-25T23:34:21.627Z,21.31
2022-08-25T23:36:56.641Z,21.25
2022-08-25T23:39:25.638Z,21.19
2022-08-25T23:41:52.390Z,21.23
2022-08-25T23:44:20.842Z,21.08
2022-08-25T23:46:59.682Z,21.09
2022-08-25T23:49:26.198Z,21.09
2022-08-25T23:51:56.521Z,21.02
2022-08-25T23:54:31.100Z,21.06
2022-08-25T23:56:58.271Z,21.03
2022-08-25T23:59:25.567Z,20.99
